Latest Coastal Weather Observations for Wyndham Airport

IDD60701

Issued at 3:55 am CST Wednesday 1 October 2014 (issued every 10 minutes, with the page automatically refreshed every 10 minutes)

About coastal observations | Map of coastal stations | Coastal observations for NT | Marine services | Other Formats
Station Details ID: 001006 Name: WYNDHAM AERO Lat: -15.51 Lon: 128.15 Height: 3.8 m
Data from the previous 72 hours. | See also: Recent months for locations in Northern Territory
Date/Time
CST
Temp

°C
Wind Pressure Rain
since 9am
mm
Weather Cloud Vis
km
Sea
Height
m
Swell
Dir
 
Speed
knots
Gust
knots
hPa Trend Height
m
Period
s
Dir
01/03:30am 23.3 ESE 1 5 1010.7 - 0.0 - - - - - - -
01/03:00am 24.0 CALM 0 0 1010.8 - 0.0 - - - - - - -
01/02:30am 24.6 CALM 0 0 1010.8 - 0.0 - - - - - - -
01/02:00am 25.3 CALM 0 0 1011.0 - 0.0 - - - - - - -
01/01:30am 24.8 W 4 6 1010.9 - 0.0 - - - - - - -
01/01:00am 24.5 WSW 4 5 1011.4 - 0.0 - - - - - - -
01/12:30am 25.0 SW 3 4 1011.5 - 0.0 - - - - - - -
01/12:00am 24.9 CALM 0 0 1011.6 - 0.0 - - - - - - -
 
Date/Time
CST
Temp

°C
Wind Pressure Rain
since 9am
mm
Weather Cloud Vis
km
Sea
Height
m
Swell
Dir
 
Speed
knots
Gust
knots
hPa Trend Height
m
Period
s
Dir
30/11:30pm 26.1 CALM 0 0 1011.9 - 0.0 - - - - - - -
30/11:00pm 25.8 CALM 0 0 1012.1 - 0.0 - - - - - - -
30/10:30pm 26.0 SE 4 5 1012.1 - 0.0 - - - - - - -
30/10:00pm 27.4 N 4 5 1011.9 - 0.0 - - - - - - -
30/09:30pm 28.0 NNW 7 8 1011.7 - 0.0 - - - - - - -
30/09:00pm 27.9 N 5 8 1011.7 - 0.0 - - - - - - -
30/08:30pm 28.2 W 5 9 1011.5 - 0.0 - - - - - - -
30/08:00pm 28.3 N 16 24 1010.9 - 0.0 - - - - - - -
30/07:30pm 28.9 N 17 22 1010.4 - 0.0 - - - - - - -
30/07:00pm 29.7 NNE 17 23 1009.9 - 0.0 - - - - - - -
30/06:30pm 31.0 N 16 21 1009.5 - 0.0 - - - - - - -
30/06:00pm 32.6 NNE 13 18 1009.2 - 0.0 - - - - - - -
30/05:30pm 33.8 NNE 13 17 1008.8 - 0.0 - - - - - - -
30/05:00pm 34.5 N 13 18 1008.7 - 0.0 - - - - - - -
30/04:30pm 35.1 NNE 12 17 1008.7 - 0.0 - - - - - - -
30/04:00pm 35.1 N 11 15 1008.9 - 0.0 - - - - - - -
30/03:30pm 35.7 N 10 16 1009.2 - 0.0 - - - - - - -
30/03:00pm 36.1 N 12 20 1009.5 - 0.0 - - - - - - -
30/02:30pm 35.3 N 11 16 1009.8 - 0.0 - - - - - - -
30/02:00pm 35.9 N 10 15 1010.4 - 0.0 - - - - - - -
30/01:30pm 34.7 NNE 13 19 1010.8 - 0.0 - - - - - - -
30/01:00pm 34.5 NNE 13 19 1011.4 - 0.0 - - - - - - -
30/12:30pm 34.9 N 9 15 1011.8 - 0.0 - - - - - - -
30/12:00pm 34.2 NE 11 13 1012.3 - 0.0 - - - - - - -
30/11:30am 33.6 N 9 12 1013.0 - 0.0 - - - - - - -
30/11:00am 31.7 NE 7 11 1013.2 - 0.0 - - - - - - -
30/10:30am 31.1 N 7 11 1013.5 - 0.0 - - - - - - -
30/10:00am 31.0 ENE 5 11 1013.4 - 0.0 - - - - - - -
30/09:30am 28.6 WNW 5 6 1013.3 - 0.0 - - - - - - -
30/09:00am 27.7 WNW 4 7 1013.4 - 0.0 - - - - - - -
30/08:30am 26.3 W 3 5 1013.2 - 0.0 - - - - - - -
30/08:00am 25.4 SSE 1 4 1012.5 - 0.0 - - - - - - -
30/07:30am 24.3 SE 6 8 1012.4 - 0.0 - - - - - - -
30/07:00am 23.3 ESE 7 9 1012.4 - 0.0 - - - - - - -
30/06:30am 22.8 E 7 8 1012.2 - 0.0 - - - - - - -
30/06:00am 23.1 E 7 8 1011.8 - 0.0 - - - - - - -
30/05:30am 23.2 E 8 10 1011.5 - 0.0 - - - - - - -
30/05:00am 23.6 ESE 9 11 1011.2 - 0.0 - - - - - - -
30/04:30am 23.7 SE 10 13 1010.9 - 0.0 - - - - - - -
30/04:00am 22.7 E 7 8 1010.6 - 0.0 - - - - - - -
30/03:30am 22.7 E 5 5 1010.3 - 0.0 - - - - - - -
30/03:00am 22.8 E 6 7 1010.3 - 0.0 - - - - - - -
30/02:30am 23.7 E 7 8 1010.4 - 0.0 - - - - - - -
30/02:00am 23.3 E 7 8 1010.4 - 0.0 - - - - - - -
30/01:30am 23.9 E 6 7 1010.6 - 0.0 - - - - - - -
30/01:00am 23.8 E 6 7 1010.9 - 0.0 - - - - - - -
30/12:30am 23.7 E 4 6 1011.3 - 0.0 - - - - - - -
30/12:00am 24.2 ESE 4 5 1011.5 - 0.0 - - - - - - -
 
Date/Time
CST
Temp

°C
Wind Pressure Rain
since 9am
mm
Weather Cloud Vis
km
Sea
Height
m
Swell
Dir
 
Speed
knots
Gust
knots
hPa Trend Height
m
Period
s
Dir
29/11:30pm 24.8 ESE 5 6 1011.6 - 0.0 - - - - - - -
29/11:00pm 25.9 CALM 0 0 1011.7 - 0.0 - - - - - - -
29/10:30pm 26.9 ENE 4 7 1011.9 - 0.0 - - - - - - -
29/10:00pm 26.9 N 5 7 1011.5 - 0.0 - - - - - - -
29/09:30pm 27.9 NE 2 5 1011.2 - 0.0 - - - - - - -
29/09:00pm 27.8 NNE 7 10 1010.8 - 0.0 - - - - - - -
29/08:30pm 27.9 ESE 6 11 1010.6 - 0.0 - - - - - - -
29/08:00pm 28.4 N 12 18 1009.7 - 0.0 - - - - - - -
29/07:30pm 29.3 NNE 15 20 1009.3 - 0.0 - - - - - - -
29/07:00pm 30.3 NNE 12 16 1009.0 - 0.0 - - - - - - -
29/06:30pm 31.7 NNE 13 19 1008.7 - 0.0 - - - - - - -
29/06:00pm 33.1 N 15 19 1008.5 - 0.0 - - - - - - -
29/05:30pm 34.1 N 14 19 1008.3 - 0.0 - - - - - - -
29/05:00pm 35.0 N 13 16 1008.1 - 0.0 - - - - - - -
29/04:30pm 36.0 NNE 13 18 1008.2 - 0.0 - - - - - - -
29/04:00pm 35.8 N 11 17 1008.2 - 0.0 - - - - - - -
29/03:30pm 36.0 N 12 17 1008.4 - 0.0 - - - - - - -
29/03:00pm 36.0 N 12 17 1008.7 - 0.0 - - - - - - -
29/02:30pm 35.6 N 11 17 1009.1 - 0.0 - - - - - - -
29/02:00pm 35.8 NNE 12 17 1009.5 - 0.0 - - - - - - -
29/01:30pm 37.1 N 10 16 1010.0 - 0.0 - - - - - - -
29/01:00pm 36.2 ENE 7 11 1010.6 - 0.0 - - - - - - -
29/12:30pm 36.0 N 9 12 1011.2 - 0.0 - - - - - - -
29/12:00pm 34.9 NNE 11 15 1011.7 - 0.0 - - - - - - -
29/11:30am 34.6 N 7 10 1012.0 - 0.0 - - - - - - -
29/11:00am 33.7 N 5 8 1012.2 - 0.0 - - - - - - -
29/10:30am 32.7 NNW 4 7 1012.4 - 0.0 - - - - - - -
29/10:00am 30.8 NNE 3 6 1012.6 - 0.0 - - - - - - -
29/09:30am 28.7 SW 4 6 1012.4 - 0.0 - - - - - - -
29/09:00am 27.2 WSW 4 6 1012.2 - 0.0 - - - - - - -
29/08:30am 26.3 CALM 0 4 1012.1 - 0.0 - - - - - - -
29/08:00am 23.7 ENE 4 5 1012.0 - 0.0 - - - - - - -
29/07:30am 21.8 E 5 8 1011.8 - 0.0 - - - - - - -
29/07:00am 20.4 ESE 10 12 1011.5 - 0.0 - - - - - - -
29/06:30am 19.4 CALM 0 0 1010.8 - 0.0 - - - - - - -
29/06:00am 19.3 CALM 0 0 1010.3 - 0.0 - - - - - - -
29/05:30am 19.6 CALM 0 0 1010.1 - 0.0 - - - - - - -
29/05:00am 19.9 CALM 0 0 1009.9 - 0.0 - - - - - - -
29/04:30am 20.4 E 4 5 1009.6 - 0.0 - - - - - - -
29/04:00am 19.2 ESE 6 8 1009.5 - 0.0 - - - - - - -
29/03:30am 19.5 CALM 0 0 1009.5 - 0.0 - - - - - - -
29/03:00am 20.4 CALM 0 0 1009.7 - 0.0 - - - - - - -
29/02:30am 21.6 CALM 0 0 1009.8 - 0.0 - - - - - - -
29/02:00am 21.9 E 3 5 1009.9 - 0.0 - - - - - - -
29/01:30am 22.2 E 7 7 1010.2 - 0.0 - - - - - - -
29/01:00am 23.4 E 8 9 1010.4 - 0.0 - - - - - - -
29/12:30am 24.8 E 9 13 1010.5 - 0.0 - - - - - - -
29/12:00am 23.6 E 8 9 1010.4 - 0.0 - - - - - - -
 
Date/Time
CST
Temp

°C
Wind Pressure Rain
since 9am
mm
Weather Cloud Vis
km
Sea
Height
m
Swell
Dir
 
Speed
knots
Gust
knots
hPa Trend Height
m
Period
s
Dir
28/11:30pm 23.8 ESE 7 7 1010.5 - 0.0 - - - - - - -
28/11:00pm 25.4 ENE 5 6 1010.8 - 0.0 - - - - - - -
28/10:30pm 27.0 S 11 15 1010.5 - 0.0 - - - - - - -
28/10:00pm 27.0 W 1 4 1010.2 - 0.0 - - - - - - -
28/09:30pm 28.3 S 5 6 1010.2 - 0.0 - - - - - - -
28/09:00pm 30.7 SW 3 5 1010.0 - 0.0 - - - - - - -
28/08:30pm 32.0 NNE 8 10 1009.7 - 0.0 - - - - - - -
28/08:00pm 32.1 N 7 9 1009.4 - 0.0 - - - - - - -
28/07:30pm 32.3 NNE 7 11 1008.9 - 0.0 - - - - - - -
28/07:00pm 33.6 N 13 16 1008.4 - 0.0 - - - - - - -
28/06:30pm 35.1 N 11 16 1008.2 - 0.0 - - - - - - -
28/06:00pm 37.9 ESE 9 14 1008.1 - 0.0 - - - - - - -
28/05:30pm 38.6 E 11 16 1008.0 - 0.0 - - - - - - -
28/05:00pm 38.6 ENE 7 10 1008.0 - 0.0 - - - - - - -
28/04:30pm 38.9 E 10 14 1008.1 - 0.0 - - - - - - -
28/04:00pm 38.9 E 7 11 1008.2 - 0.0 - - - - - - -
28/03:30pm 38.8 ESE 8 13 1008.6 - 0.0 - - - - - - -
28/03:00pm 39.1 NE 7 11 1009.0 - 0.0 - - - - - - -
28/02:30pm 38.7 SE 6 11 1009.5 - 0.0 - - - - - - -
28/02:00pm 38.7 W 6 9 1010.0 - 0.0 - - - - - - -
28/01:30pm 38.4 ESE 5 9 1010.6 - 0.0 - - - - - - -
28/01:00pm 37.8 E 6 10 1011.4 - 0.0 - - - - - - -
28/12:30pm 36.8 E 6 10 1012.1 - 0.0 - - - - - - -
28/12:00pm 36.6 NE 6 9 1012.8 - 0.0 - - - - - - -
28/11:30am 35.8 NE 7 11 1013.3 - 0.0 - - - - - - -
28/11:00am 34.0 SSW 5 7 1013.7 - 0.0 - - - - - - -
28/10:30am 32.7 WSW 4 7 1014.1 - 0.0 - - - - - - -
28/10:00am 32.0 SW 5 8 1014.4 - 0.0 - - - - - - -
28/09:30am 30.1 SSW 5 6 1014.6 - 0.0 - - - - - - -
28/09:00am 29.0 WSW 5 6 1014.6 - 0.0 - - - - - - -
28/08:30am 28.6 WSW 3 5 1014.4 - 0.0 - - - - - - -
28/08:00am 25.8 CALM 0 0 1014.2 - 0.0 - - - - - - -
28/07:30am 23.2 E 3 5 1014.0 - 0.0 - - - - - - -
28/07:00am 21.0 E 4 6 1013.7 - 0.0 - - - - - - -
28/06:30am 21.3 ESE 3 5 1013.3 - 0.0 - - - - - - -
28/06:00am 23.0 SSW 2 3 1012.9 - 0.0 - - - - - - -
28/05:30am 22.6 CALM 0 0 1012.7 - 0.0 - - - - - - -

Other Formats:

Comma delimited format used in spreadsheet applications
http://www.bom.gov.au/fwo/IDD60701/IDD60701.95214.axf

JavaScript Object Notation format (JSON) in row-major order
http://www.bom.gov.au/fwo/IDD60701/IDD60701.95214.json